sensor_id;sensor_type;location;lat;lon;timestamp;temperature;humidity
2757;DHT22;1386;50.862;6.494;2024-02-15T00:01:20;12.40;99.90
2757;DHT22;1386;50.862;6.494;2024-02-15T00:03:47;12.40;99.90
2757;DHT22;1386;50.862;6.494;2024-02-15T00:06:14;12.40;99.90
2757;DHT22;1386;50.862;6.494;2024-02-15T00:08:40;12.40;99.90
2757;DHT22;1386;50.862;6.494;2024-02-15T00:11:07;12.40;99.90
2757;DHT22;1386;50.862;6.494;2024-02-15T00:13:35;12.40;99.90
2757;DHT22;1386;50.862;6.494;2024-02-15T00:16:02;12.40;99.90
2757;DHT22;1386;50.862;6.494;2024-02-15T00:18:31;12.40;99.90
2757;DHT22;1386;50.862;6.494;2024-02-15T00:20:58;12.30;99.90
2757;DHT22;1386;50.862;6.494;2024-02-15T00:23:25;12.30;99.90
2757;DHT22;1386;50.862;6.494;2024-02-15T00:25:52;12.30;99.90
2757;DHT22;1386;50.862;6.494;2024-02-15T00:28:19;12.30;99.90
2757;DHT22;1386;50.862;6.494;2024-02-15T00:30:46;12.30;99.90
2757;DHT22;1386;50.862;6.494;2024-02-15T00:33:13;12.40;99.90
2757;DHT22;1386;50.862;6.494;2024-02-15T00:35:40;12.40;99.90
2757;DHT22;1386;50.862;6.494;2024-02-15T00:38:07;12.40;99.90
2757;DHT22;1386;50.862;6.494;2024-02-15T00:40:34;12.40;99.90
2757;DHT22;1386;50.862;6.494;2024-02-15T00:43:01;12.40;99.90
2757;DHT22;1386;50.862;6.494;2024-02-15T00:45:27;12.50;99.90
2757;DHT22;1386;50.862;6.494;2024-02-15T00:47:54;12.50;99.90
2757;DHT22;1386;50.862;6.494;2024-02-15T00:50:21;12.50;99.90
2757;DHT22;1386;50.862;6.494;2024-02-15T00:52:50;12.50;99.90
2757;DHT22;1386;50.862;6.494;2024-02-15T00:55:17;12.50;99.90
2757;DHT22;1386;50.862;6.494;2024-02-15T00:57:44;12.50;99.90
2757;DHT22;1386;50.862;6.494;2024-02-15T01:00:12;12.50;99.90
2757;DHT22;1386;50.862;6.494;2024-02-15T01:02:39;12.50;99.90
2757;DHT22;1386;50.862;6.494;2024-02-15T01:05:06;12.50;99.90
2757;DHT22;1386;50.862;6.494;2024-02-15T01:07:35;12.50;99.90
2757;DHT22;1386;50.862;6.494;2024-02-15T01:10:04;12.50;99.90
2757;DHT22;1386;50.862;6.494;2024-02-15T01:12:31;12.50;99.90
2757;DHT22;1386;50.862;6.494;2024-02-15T01:14:58;12.50;99.90
2757;DHT22;1386;50.862;6.494;2024-02-15T01:17:25;12.50;99.90
2757;DHT22;1386;50.862;6.494;2024-02-15T01:19:52;12.50;99.90
2757;DHT22;1386;50.862;6.494;2024-02-15T01:22:19;12.50;99.90
2757;DHT22;1386;50.862;6.494;2024-02-15T01:24:51;12.50;99.90
2757;DHT22;1386;50.862;6.494;2024-02-15T01:27:20;12.50;99.90
2757;DHT22;1386;50.862;6.494;2024-02-15T01:29:46;12.50;99.90
2757;DHT22;1386;50.862;6.494;2024-02-15T01:32:13;12.50;99.90
2757;DHT22;1386;50.862;6.494;2024-02-15T01:34:40;12.50;99.90
2757;DHT22;1386;50.862;6.494;2024-02-15T01:37:07;12.60;99.90
2757;DHT22;1386;50.862;6.494;2024-02-15T01:39:34;12.60;99.90
2757;DHT22;1386;50.862;6.494;2024-02-15T01:42:07;12.60;99.90
2757;DHT22;1386;50.862;6.494;2024-02-15T01:44:38;12.60;99.90
2757;DHT22;1386;50.862;6.494;2024-02-15T01:47:06;12.60;99.90
2757;DHT22;1386;50.862;6.494;2024-02-15T01:49:34;12.60;99.90
2757;DHT22;1386;50.862;6.494;2024-02-15T01:52:02;12.60;99.90
2757;DHT22;1386;50.862;6.494;2024-02-15T01:54:33;12.60;99.90
2757;DHT22;1386;50.862;6.494;2024-02-15T01:57:01;12.60;99.90
2757;DHT22;1386;50.862;6.494;2024-02-15T01:59:30;12.60;99.90
2757;DHT22;1386;50.862;6.494;2024-02-15T02:01:59;12.60;99.90
2757;DHT22;1386;50.862;6.494;2024-02-15T02:04:26;12.60;99.90
2757;DHT22;1386;50.862;6.494;2024-02-15T02:06:53;12.60;99.90
2757;DHT22;1386;50.862;6.494;2024-02-15T02:09:24;12.60;99.90
2757;DHT22;1386;50.862;6.494;2024-02-15T02:11:51;12.60;99.90
2757;DHT22;1386;50.862;6.494;2024-02-15T02:14:18;12.60;99.90
2757;DHT22;1386;50.862;6.494;2024-02-15T02:16:46;12.60;99.90
2757;DHT22;1386;50.862;6.494;2024-02-15T02:19:14;12.60;99.90
2757;DHT22;1386;50.862;6.494;2024-02-15T02:21:43;12.50;99.90
2757;DHT22;1386;50.862;6.494;2024-02-15T02:24:13;12.60;99.90
2757;DHT22;1386;50.862;6.494;2024-02-15T02:26:42;12.50;99.90
2757;DHT22;1386;50.862;6.494;2024-02-15T02:29:09;12.50;99.90
2757;DHT22;1386;50.862;6.494;2024-02-15T02:31:36;12.50;99.90
2757;DHT22;1386;50.862;6.494;2024-02-15T02:34:03;12.50;99.90
2757;DHT22;1386;50.862;6.494;2024-02-15T02:36:31;12.50;99.90
2757;DHT22;1386;50.862;6.494;2024-02-15T02:38:58;12.50;99.90
2757;DHT22;1386;50.862;6.494;2024-02-15T02:41:26;12.50;99.90
2757;DHT22;1386;50.862;6.494;2024-02-15T02:43:55;12.40;99.90
2757;DHT22;1386;50.862;6.494;2024-02-15T02:46:22;12.40;99.90
2757;DHT22;1386;50.862;6.494;2024-02-15T02:48:49;12.40;99.90
2757;DHT22;1386;50.862;6.494;2024-02-15T02:51:16;12.30;99.90
2757;DHT22;1386;50.862;6.494;2024-02-15T02:53:43;12.30;99.90
2757;DHT22;1386;50.862;6.494;2024-02-15T02:56:10;12.30;99.90
2757;DHT22;1386;50.862;6.494;2024-02-15T02:58:38;12.20;99.90
2757;DHT22;1386;50.862;6.494;2024-02-15T03:01:09;12.20;99.90
2757;DHT22;1386;50.862;6.494;2024-02-15T03:03:36;12.20;99.90
2757;DHT22;1386;50.862;6.494;2024-02-15T03:06:04;12.20;99.90
2757;DHT22;1386;50.862;6.494;2024-02-15T03:08:31;12.20;99.90
2757;DHT22;1386;50.862;6.494;2024-02-15T03:10:59;12.20;99.90
2757;DHT22;1386;50.862;6.494;2024-02-15T03:13:26;12.20;99.90
2757;DHT22;1386;50.862;6.494;2024-02-15T03:15:53;12.20;99.90
2757;DHT22;1386;50.862;6.494;2024-02-15T03:18:21;12.30;99.90
2757;DHT22;1386;50.862;6.494;2024-02-15T03:20:49;12.30;99.90
2757;DHT22;1386;50.862;6.494;2024-02-15T03:23:15;12.30;99.90
2757;DHT22;1386;50.862;6.494;2024-02-15T03:25:42;12.40;99.90
2757;DHT22;1386;50.862;6.494;2024-02-15T03:28:09;12.30;99.90
2757;DHT22;1386;50.862;6.494;2024-02-15T03:30:36;12.30;99.90
2757;DHT22;1386;50.862;6.494;2024-02-15T03:33:03;12.30;99.90
2757;DHT22;1386;50.862;6.494;2024-02-15T03:35:32;12.30;99.90
2757;DHT22;1386;50.862;6.494;2024-02-15T03:37:59;12.20;99.90
2757;DHT22;1386;50.862;6.494;2024-02-15T03:40:26;12.20;99.90
2757;DHT22;1386;50.862;6.494;2024-02-15T03:42:54;12.20;99.90
2757;DHT22;1386;50.862;6.494;2024-02-15T03:45:22;12.10;99.90
2757;DHT22;1386;50.862;6.494;2024-02-15T03:47:51;12.10;99.90
2757;DHT22;1386;50.862;6.494;2024-02-15T03:50:18;12.10;99.90
2757;DHT22;1386;50.862;6.494;2024-02-15T03:52:48;12.10;99.90
2757;DHT22;1386;50.862;6.494;2024-02-15T03:55:15;12.10;99.90
2757;DHT22;1386;50.862;6.494;2024-02-15T03:57:42;12.10;99.90
2757;DHT22;1386;50.862;6.494;2024-02-15T04:00:11;12.10;99.90
2757;DHT22;1386;50.862;6.494;2024-02-15T04:02:46;12.10;99.90
2757;DHT22;1386;50.862;6.494;2024-02-15T04:05:13;12.10;99.90
2757;DHT22;1386;50.862;6.494;2024-02-15T04:07:43;12.10;99.90
2757;DHT22;1386;50.862;6.494;2024-02-15T04:10:11;12.10;99.90
2757;DHT22;1386;50.862;6.494;2024-02-15T04:12:38;12.00;99.90
2757;DHT22;1386;50.862;6.494;2024-02-15T04:15:07;12.00;99.90
2757;DHT22;1386;50.862;6.494;2024-02-15T04:17:37;12.00;99.90
2757;DHT22;1386;50.862;6.494;2024-02-15T04:20:05;12.00;99.90
2757;DHT22;1386;50.862;6.494;2024-02-15T04:22:32;12.00;99.90
2757;DHT22;1386;50.862;6.494;2024-02-15T04:25:03;12.00;99.90
2757;DHT22;1386;50.862;6.494;2024-02-15T04:27:32;11.90;99.90
2757;DHT22;1386;50.862;6.494;2024-02-15T04:29:59;11.90;99.90
2757;DHT22;1386;50.862;6.494;2024-02-15T04:32:29;11.90;99.90
2757;DHT22;1386;50.862;6.494;2024-02-15T04:34:59;11.90;99.90
2757;DHT22;1386;50.862;6.494;2024-02-15T04:37:26;11.90;99.90
2757;DHT22;1386;50.862;6.494;2024-02-15T04:39:54;11.90;99.90
2757;DHT22;1386;50.862;6.494;2024-02-15T04:42:21;11.80;99.90
2757;DHT22;1386;50.862;6.494;2024-02-15T04:44:50;11.80;99.90
2757;DHT22;1386;50.862;6.494;2024-02-15T04:47:18;11.80;99.90
2757;DHT22;1386;50.862;6.494;2024-02-15T04:49:45;11.80;99.90
2757;DHT22;1386;50.862;6.494;2024-02-15T04:52:12;11.80;99.90
2757;DHT22;1386;50.862;6.494;2024-02-15T04:54:40;11.80;99.90
2757;DHT22;1386;50.862;6.494;2024-02-15T04:57:10;11.80;99.90
2757;DHT22;1386;50.862;6.494;2024-02-15T04:59:37;11.70;99.90
2757;DHT22;1386;50.862;6.494;2024-02-15T05:02:05;11.70;99.90
2757;DHT22;1386;50.862;6.494;2024-02-15T05:04:33;11.70;99.90
2757;DHT22;1386;50.862;6.494;2024-02-15T05:07:02;11.70;99.90
2757;DHT22;1386;50.862;6.494;2024-02-15T05:09:29;11.60;99.90
2757;DHT22;1386;50.862;6.494;2024-02-15T05:11:56;11.70;99.90
2757;DHT22;1386;50.862;6.494;2024-02-15T05:14:23;11.70;99.90
2757;DHT22;1386;50.862;6.494;2024-02-15T05:16:52;11.70;99.90
2757;DHT22;1386;50.862;6.494;2024-02-15T05:19:20;11.70;99.90
2757;DHT22;1386;50.862;6.494;2024-02-15T05:21:47;11.70;99.90
2757;DHT22;1386;50.862;6.494;2024-02-15T05:24:14;11.70;99.90
2757;DHT22;1386;50.862;6.494;2024-02-15T05:26:41;11.70;99.90
2757;DHT22;1386;50.862;6.494;2024-02-15T05:29:09;11.70;99.90
2757;DHT22;1386;50.862;6.494;2024-02-15T05:31:36;11.60;99.90
2757;DHT22;1386;50.862;6.494;2024-02-15T05:34:06;11.60;99.90
2757;DHT22;1386;50.862;6.494;2024-02-15T05:36:38;11.60;99.90
2757;DHT22;1386;50.862;6.494;2024-02-15T05:39:05;11.60;99.90
2757;DHT22;1386;50.862;6.494;2024-02-15T05:41:32;11.60;99.90
2757;DHT22;1386;50.862;6.494;2024-02-15T05:43:59;11.60;99.90
2757;DHT22;1386;50.862;6.494;2024-02-15T05:46:26;11.60;99.90
2757;DHT22;1386;50.862;6.494;2024-02-15T05:48:54;11.70;99.90
2757;DHT22;1386;50.862;6.494;2024-02-15T05:51:22;11.70;99.90
2757;DHT22;1386;50.862;6.494;2024-02-15T05:53:50;11.70;99.90
2757;DHT22;1386;50.862;6.494;2024-02-15T05:56:19;11.80;99.90
2757;DHT22;1386;50.862;6.494;2024-02-15T05:58:46;11.80;99.90
2757;DHT22;1386;50.862;6.494;2024-02-15T06:01:15;11.80;99.90
2757;DHT22;1386;50.862;6.494;2024-02-15T06:03:42;11.80;99.90
2757;DHT22;1386;50.862;6.494;2024-02-15T06:06:10;11.80;99.90
2757;DHT22;1386;50.862;6.494;2024-02-15T06:08:38;11.80;99.90
2757;DHT22;1386;50.862;6.494;2024-02-15T06:11:06;11.90;99.90
2757;DHT22;1386;50.862;6.494;2024-02-15T06:13:35;11.90;99.90
2757;DHT22;1386;50.862;6.494;2024-02-15T06:16:01;11.90;99.90
2757;DHT22;1386;50.862;6.494;2024-02-15T06:18:34;11.80;99.90
2757;DHT22;1386;50.862;6.494;2024-02-15T06:21:01;11.80;99.90
2757;DHT22;1386;50.862;6.494;2024-02-15T06:23:28;11.80;99.90
2757;DHT22;1386;50.862;6.494;2024-02-15T06:25:56;11.90;99.90
2757;DHT22;1386;50.862;6.494;2024-02-15T06:28:25;11.80;99.90
2757;DHT22;1386;50.862;6.494;2024-02-15T06:31:10;11.80;99.90
2757;DHT22;1386;50.862;6.494;2024-02-15T06:33:55;11.80;99.90
2757;DHT22;1386;50.862;6.494;2024-02-15T06:36:40;11.90;99.90
2757;DHT22;1386;50.862;6.494;2024-02-15T06:39:28;11.90;99.90
2757;DHT22;1386;50.862;6.494;2024-02-15T06:42:12;12.00;99.90
2757;DHT22;1386;50.862;6.494;2024-02-15T06:44:43;12.00;99.90
2757;DHT22;1386;50.862;6.494;2024-02-15T06:47:10;12.00;99.90
2757;DHT22;1386;50.862;6.494;2024-02-15T06:49:38;12.00;99.90
2757;DHT22;1386;50.862;6.494;2024-02-15T06:52:06;12.00;99.90
2757;DHT22;1386;50.862;6.494;2024-02-15T06:54:33;12.00;99.90
2757;DHT22;1386;50.862;6.494;2024-02-15T06:57:01;12.00;99.90
2757;DHT22;1386;50.862;6.494;2024-02-15T06:59:28;12.10;99.90
2757;DHT22;1386;50.862;6.494;2024-02-15T07:01:57;12.10;99.90
2757;DHT22;1386;50.862;6.494;2024-02-15T07:04:24;12.10;99.90
2757;DHT22;1386;50.862;6.494;2024-02-15T07:06:51;12.20;99.90
2757;DHT22;1386;50.862;6.494;2024-02-15T07:09:20;12.20;99.90
2757;DHT22;1386;50.862;6.494;2024-02-15T07:11:48;12.20;99.90
2757;DHT22;1386;50.862;6.494;2024-02-15T07:14:15;12.20;99.90
2757;DHT22;1386;50.862;6.494;2024-02-15T07:16:44;12.20;99.90
2757;DHT22;1386;50.862;6.494;2024-02-15T07:19:12;12.20;99.90
2757;DHT22;1386;50.862;6.494;2024-02-15T07:21:40;12.30;99.90
2757;DHT22;1386;50.862;6.494;2024-02-15T07:24:07;12.30;99.90
2757;DHT22;1386;50.862;6.494;2024-02-15T07:26:35;12.20;99.90
2757;DHT22;1386;50.862;6.494;2024-02-15T07:29:02;12.20;99.90
2757;DHT22;1386;50.862;6.494;2024-02-15T07:31:31;12.20;99.90
2757;DHT22;1386;50.862;6.494;2024-02-15T07:33:58;12.20;99.90
2757;DHT22;1386;50.862;6.494;2024-02-15T07:36:27;12.30;99.90
2757;DHT22;1386;50.862;6.494;2024-02-15T07:38:54;12.30;99.90
2757;DHT22;1386;50.862;6.494;2024-02-15T07:41:23;12.30;99.90
2757;DHT22;1386;50.862;6.494;2024-02-15T07:43:51;12.30;99.90
2757;DHT22;1386;50.862;6.494;2024-02-15T07:46:20;12.30;99.90
2757;DHT22;1386;50.862;6.494;2024-02-15T07:48:47;12.20;99.90
2757;DHT22;1386;50.862;6.494;2024-02-15T07:51:15;12.20;99.90
2757;DHT22;1386;50.862;6.494;2024-02-15T07:53:45;12.20;99.90
2757;DHT22;1386;50.862;6.494;2024-02-15T07:56:13;12.20;99.90
2757;DHT22;1386;50.862;6.494;2024-02-15T07:58:41;12.20;99.90
2757;DHT22;1386;50.862;6.494;2024-02-15T08:01:08;12.30;99.90
2757;DHT22;1386;50.862;6.494;2024-02-15T08:03:35;12.30;99.90
2757;DHT22;1386;50.862;6.494;2024-02-15T08:06:02;12.30;99.90
2757;DHT22;1386;50.862;6.494;2024-02-15T08:08:33;12.30;99.90
2757;DHT22;1386;50.862;6.494;2024-02-15T08:11:03;12.30;99.90
2757;DHT22;1386;50.862;6.494;2024-02-15T08:13:30;12.40;99.90
2757;DHT22;1386;50.862;6.494;2024-02-15T08:15:57;12.40;99.90
2757;DHT22;1386;50.862;6.494;2024-02-15T08:18:23;12.40;99.90
2757;DHT22;1386;50.862;6.494;2024-02-15T08:20:53;12.40;99.90
2757;DHT22;1386;50.862;6.494;2024-02-15T08:23:19;12.40;99.90
2757;DHT22;1386;50.862;6.494;2024-02-15T08:25:46;12.40;99.90
2757;DHT22;1386;50.862;6.494;2024-02-15T08:28:14;12.40;99.90
2757;DHT22;1386;50.862;6.494;2024-02-15T08:30:41;12.50;99.90
2757;DHT22;1386;50.862;6.494;2024-02-15T08:33:08;12.50;99.90
2757;DHT22;1386;50.862;6.494;2024-02-15T08:35:37;12.40;99.90
2757;DHT22;1386;50.862;6.494;2024-02-15T08:38:06;12.50;99.90
2757;DHT22;1386;50.862;6.494;2024-02-15T08:40:33;12.50;99.90
2757;DHT22;1386;50.862;6.494;2024-02-15T08:43:00;12.60;99.90
2757;DHT22;1386;50.862;6.494;2024-02-15T08:45:29;12.60;99.90
2757;DHT22;1386;50.862;6.494;2024-02-15T08:47:56;12.70;99.90
2757;DHT22;1386;50.862;6.494;2024-02-15T08:50:23;12.70;99.90
2757;DHT22;1386;50.862;6.494;2024-02-15T08:52:50;12.80;99.90
2757;DHT22;1386;50.862;6.494;2024-02-15T08:55:17;12.90;99.90
2757;DHT22;1386;50.862;6.494;2024-02-15T08:57:46;12.90;99.90
2757;DHT22;1386;50.862;6.494;2024-02-15T09:00:13;13.00;99.90
2757;DHT22;1386;50.862;6.494;2024-02-15T09:02:43;13.10;99.90
2757;DHT22;1386;50.862;6.494;2024-02-15T09:05:10;13.30;99.90
2757;DHT22;1386;50.862;6.494;2024-02-15T09:07:39;13.40;99.90
2757;DHT22;1386;50.862;6.494;2024-02-15T09:10:10;13.50;99.90
2757;DHT22;1386;50.862;6.494;2024-02-15T09:16:06;13.50;99.90
2757;DHT22;1386;50.862;6.494;2024-02-15T09:18:35;13.50;99.90
2757;DHT22;1386;50.862;6.494;2024-02-15T09:21:03;13.50;99.90
2757;DHT22;1386;50.862;6.494;2024-02-15T09:23:30;13.50;99.90
2757;DHT22;1386;50.862;6.494;2024-02-15T09:25:57;13.50;99.90
2757;DHT22;1386;50.862;6.494;2024-02-15T09:28:24;13.60;99.90
2757;DHT22;1386;50.862;6.494;2024-02-15T09:30:51;13.60;99.90
2757;DHT22;1386;50.862;6.494;2024-02-15T09:33:19;13.60;99.90
2757;DHT22;1386;50.862;6.494;2024-02-15T09:35:48;13.70;99.90
2757;DHT22;1386;50.862;6.494;2024-02-15T09:38:14;13.70;99.90
2757;DHT22;1386;50.862;6.494;2024-02-15T09:40:42;13.70;99.90
2757;DHT22;1386;50.862;6.494;2024-02-15T09:43:10;13.70;99.90
2757;DHT22;1386;50.862;6.494;2024-02-15T09:45:39;13.80;99.90
2757;DHT22;1386;50.862;6.494;2024-02-15T09:48:06;13.80;99.90
2757;DHT22;1386;50.862;6.494;2024-02-15T09:50:39;13.80;99.90
2757;DHT22;1386;50.862;6.494;2024-02-15T09:53:09;13.90;99.90
2757;DHT22;1386;50.862;6.494;2024-02-15T09:55:36;13.80;99.90
2757;DHT22;1386;50.862;6.494;2024-02-15T09:58:07;13.90;99.90
2757;DHT22;1386;50.862;6.494;2024-02-15T10:00:35;13.90;99.90
2757;DHT22;1386;50.862;6.494;2024-02-15T10:03:06;13.90;99.90
2757;DHT22;1386;50.862;6.494;2024-02-15T10:05:33;13.90;99.90
2757;DHT22;1386;50.862;6.494;2024-02-15T10:08:00;13.90;99.90
2757;DHT22;1386;50.862;6.494;2024-02-15T10:10:28;14.10;99.90
2757;DHT22;1386;50.862;6.494;2024-02-15T10:12:55;14.10;99.90
2757;DHT22;1386;50.862;6.494;2024-02-15T10:15:30;14.20;99.90
2757;DHT22;1386;50.862;6.494;2024-02-15T10:17:58;14.20;99.90
2757;DHT22;1386;50.862;6.494;2024-02-15T10:20:25;14.30;99.90
2757;DHT22;1386;50.862;6.494;2024-02-15T10:22:53;14.40;99.90
2757;DHT22;1386;50.862;6.494;2024-02-15T10:25:21;14.50;99.90
2757;DHT22;1386;50.862;6.494;2024-02-15T10:27:49;14.60;99.90
2757;DHT22;1386;50.862;6.494;2024-02-15T10:30:18;14.60;99.90
2757;DHT22;1386;50.862;6.494;2024-02-15T10:32:45;14.70;99.90
2757;DHT22;1386;50.862;6.494;2024-02-15T10:35:19;14.70;99.90
2757;DHT22;1386;50.862;6.494;2024-02-15T10:37:48;14.70;99.90
2757;DHT22;1386;50.862;6.494;2024-02-15T10:40:18;14.80;99.90
2757;DHT22;1386;50.862;6.494;2024-02-15T10:42:47;14.90;99.90
2757;DHT22;1386;50.862;6.494;2024-02-15T10:45:16;15.00;99.90
2757;DHT22;1386;50.862;6.494;2024-02-15T10:47:45;15.00;99.90
2757;DHT22;1386;50.862;6.494;2024-02-15T10:50:13;15.00;99.90
2757;DHT22;1386;50.862;6.494;2024-02-15T10:52:48;15.00;99.90
2757;DHT22;1386;50.862;6.494;2024-02-15T10:55:21;15.10;99.90
2757;DHT22;1386;50.862;6.494;2024-02-15T10:57:52;15.10;99.90
2757;DHT22;1386;50.862;6.494;2024-02-15T11:00:24;15.10;99.90
2757;DHT22;1386;50.862;6.494;2024-02-15T11:03:00;15.10;99.90
2757;DHT22;1386;50.862;6.494;2024-02-15T11:05:32;15.20;99.90
2757;DHT22;1386;50.862;6.494;2024-02-15T11:08:00;15.20;99.90
2757;DHT22;1386;50.862;6.494;2024-02-15T11:10:28;15.20;99.90
2757;DHT22;1386;50.862;6.494;2024-02-15T11:12:55;15.40;99.90
2757;DHT22;1386;50.862;6.494;2024-02-15T11:15:45;15.40;99.90
2757;DHT22;1386;50.862;6.494;2024-02-15T11:18:42;15.40;99.90
2757;DHT22;1386;50.862;6.494;2024-02-15T11:21:09;15.60;99.90
2757;DHT22;1386;50.862;6.494;2024-02-15T11:23:36;15.60;99.90
2757;DHT22;1386;50.862;6.494;2024-02-15T11:26:09;15.70;99.90
2757;DHT22;1386;50.862;6.494;2024-02-15T11:28:42;15.70;99.90
2757;DHT22;1386;50.862;6.494;2024-02-15T11:34:42;15.90;99.90
2757;DHT22;1386;50.862;6.494;2024-02-15T11:40:12;16.00;99.90
2757;DHT22;1386;50.862;6.494;2024-02-15T11:42:39;16.10;99.90
2757;DHT22;1386;50.862;6.494;2024-02-15T11:45:07;16.10;99.90
2757;DHT22;1386;50.862;6.494;2024-02-15T11:47:37;16.00;99.90
2757;DHT22;1386;50.862;6.494;2024-02-15T11:50:08;16.00;99.90
2757;DHT22;1386;50.862;6.494;2024-02-15T11:52:38;16.00;99.90
2757;DHT22;1386;50.862;6.494;2024-02-15T11:55:05;16.00;99.90
2757;DHT22;1386;50.862;6.494;2024-02-15T11:57:36;16.00;99.90
2757;DHT22;1386;50.862;6.494;2024-02-15T12:00:20;16.10;99.90
2757;DHT22;1386;50.862;6.494;2024-02-15T12:03:01;16.20;99.90
2757;DHT22;1386;50.862;6.494;2024-02-15T12:05:49;16.20;99.90
2757;DHT22;1386;50.862;6.494;2024-02-15T12:08:33;16.30;99.90
2757;DHT22;1386;50.862;6.494;2024-02-15T12:11:18;16.30;99.90
2757;DHT22;1386;50.862;6.494;2024-02-15T12:14:02;16.40;99.90
2757;DHT22;1386;50.862;6.494;2024-02-15T12:16:46;16.40;99.90
2757;DHT22;1386;50.862;6.494;2024-02-15T12:19:33;16.40;99.90
2757;DHT22;1386;50.862;6.494;2024-02-15T12:22:01;16.40;99.90
2757;DHT22;1386;50.862;6.494;2024-02-15T12:24:30;16.40;99.90
2757;DHT22;1386;50.862;6.494;2024-02-15T12:27:00;16.40;99.90
2757;DHT22;1386;50.862;6.494;2024-02-15T12:29:28;16.40;99.90
2757;DHT22;1386;50.862;6.494;2024-02-15T12:31:56;16.40;99.90
2757;DHT22;1386;50.862;6.494;2024-02-15T12:34:24;16.40;99.90
2757;DHT22;1386;50.862;6.494;2024-02-15T12:37:06;16.40;99.90
2757;DHT22;1386;50.862;6.494;2024-02-15T12:39:34;16.40;99.90
2757;DHT22;1386;50.862;6.494;2024-02-15T12:42:02;16.40;99.90
2757;DHT22;1386;50.862;6.494;2024-02-15T12:44:30;16.40;99.90
2757;DHT22;1386;50.862;6.494;2024-02-15T12:46:59;16.40;99.90
2757;DHT22;1386;50.862;6.494;2024-02-15T12:49:29;16.40;99.90
2757;DHT22;1386;50.862;6.494;2024-02-15T12:55:08;16.40;99.90
2757;DHT22;1386;50.862;6.494;2024-02-15T12:57:36;16.40;99.90
2757;DHT22;1386;50.862;6.494;2024-02-15T13:00:07;16.30;99.90
2757;DHT22;1386;50.862;6.494;2024-02-15T13:02:37;16.30;99.90
2757;DHT22;1386;50.862;6.494;2024-02-15T13:05:04;16.40;99.90
2757;DHT22;1386;50.862;6.494;2024-02-15T13:07:33;16.40;99.90
2757;DHT22;1386;50.862;6.494;2024-02-15T13:10:00;16.50;99.90
2757;DHT22;1386;50.862;6.494;2024-02-15T13:12:28;16.50;99.90
2757;DHT22;1386;50.862;6.494;2024-02-15T13:14:55;16.50;99.90
2757;DHT22;1386;50.862;6.494;2024-02-15T13:17:22;16.60;99.90
2757;DHT22;1386;50.862;6.494;2024-02-15T13:19:52;16.70;99.90
2757;DHT22;1386;50.862;6.494;2024-02-15T13:22:27;16.70;99.90
2757;DHT22;1386;50.862;6.494;2024-02-15T13:24:54;16.90;99.90
2757;DHT22;1386;50.862;6.494;2024-02-15T13:27:21;16.90;99.90
2757;DHT22;1386;50.862;6.494;2024-02-15T13:29:57;16.90;99.90
2757;DHT22;1386;50.862;6.494;2024-02-15T13:32:26;16.80;99.90
2757;DHT22;1386;50.862;6.494;2024-02-15T13:34:56;16.80;99.90
2757;DHT22;1386;50.862;6.494;2024-02-15T13:37:32;16.70;99.90
2757;DHT22;1386;50.862;6.494;2024-02-15T13:40:00;16.70;99.90
2757;DHT22;1386;50.862;6.494;2024-02-15T13:42:30;16.60;99.90
2757;DHT22;1386;50.862;6.494;2024-02-15T13:45:00;16.60;99.90
2757;DHT22;1386;50.862;6.494;2024-02-15T13:47:27;16.50;99.90
2757;DHT22;1386;50.862;6.494;2024-02-15T13:49:54;16.50;99.90
2757;DHT22;1386;50.862;6.494;2024-02-15T13:52:21;16.50;99.90
2757;DHT22;1386;50.862;6.494;2024-02-15T13:54:53;16.50;99.90
2757;DHT22;1386;50.862;6.494;2024-02-15T13:57:40;16.40;99.90
2757;DHT22;1386;50.862;6.494;2024-02-15T14:00:34;16.40;99.90
2757;DHT22;1386;50.862;6.494;2024-02-15T14:03:16;16.30;99.90
2757;DHT22;1386;50.862;6.494;2024-02-15T14:05:44;16.20;99.90
2757;DHT22;1386;50.862;6.494;2024-02-15T14:08:13;16.20;99.90
2757;DHT22;1386;50.862;6.494;2024-02-15T14:11:05;16.20;99.90
2757;DHT22;1386;50.862;6.494;2024-02-15T14:13:32;16.10;99.90
2757;DHT22;1386;50.862;6.494;2024-02-15T14:16:05;16.10;99.90
2757;DHT22;1386;50.862;6.494;2024-02-15T14:18:38;16.00;99.90
2757;DHT22;1386;50.862;6.494;2024-02-15T14:21:10;16.00;99.90
2757;DHT22;1386;50.862;6.494;2024-02-15T14:23:37;16.00;99.90
2757;DHT22;1386;50.862;6.494;2024-02-15T14:26:10;15.90;99.90
2757;DHT22;1386;50.862;6.494;2024-02-15T14:28:41;15.90;99.90
2757;DHT22;1386;50.862;6.494;2024-02-15T14:31:11;15.90;99.90
2757;DHT22;1386;50.862;6.494;2024-02-15T14:33:55;15.80;99.90
2757;DHT22;1386;50.862;6.494;2024-02-15T14:36:24;15.80;99.90
2757;DHT22;1386;50.862;6.494;2024-02-15T14:38:52;15.70;99.90
2757;DHT22;1386;50.862;6.494;2024-02-15T14:41:20;15.70;99.90
2757;DHT22;1386;50.862;6.494;2024-02-15T14:43:48;15.70;99.90
2757;DHT22;1386;50.862;6.494;2024-02-15T14:46:20;15.70;99.90
2757;DHT22;1386;50.862;6.494;2024-02-15T14:48:50;15.60;99.90
2757;DHT22;1386;50.862;6.494;2024-02-15T14:51:17;15.60;99.90
2757;DHT22;1386;50.862;6.494;2024-02-15T14:53:44;15.60;99.90
2757;DHT22;1386;50.862;6.494;2024-02-15T14:56:12;15.60;99.90
2757;DHT22;1386;50.862;6.494;2024-02-15T14:58:39;15.60;99.90
2757;DHT22;1386;50.862;6.494;2024-02-15T15:01:06;15.60;99.90
2757;DHT22;1386;50.862;6.494;2024-02-15T15:03:35;15.50;99.90
2757;DHT22;1386;50.862;6.494;2024-02-15T15:06:03;15.50;99.90
2757;DHT22;1386;50.862;6.494;2024-02-15T15:08:48;15.50;99.90
2757;DHT22;1386;50.862;6.494;2024-02-15T15:11:44;15.50;99.90
2757;DHT22;1386;50.862;6.494;2024-02-15T15:14:31;15.50;99.90
2757;DHT22;1386;50.862;6.494;2024-02-15T15:16:58;15.50;99.90
2757;DHT22;1386;50.862;6.494;2024-02-15T15:19:27;15.50;99.90
2757;DHT22;1386;50.862;6.494;2024-02-15T15:21:54;15.40;99.90
2757;DHT22;1386;50.862;6.494;2024-02-15T15:24:23;15.40;99.90
2757;DHT22;1386;50.862;6.494;2024-02-15T15:26:52;15.40;99.90
2757;DHT22;1386;50.862;6.494;2024-02-15T15:29:18;15.40;99.90
2757;DHT22;1386;50.862;6.494;2024-02-15T15:31:45;15.40;99.90
2757;DHT22;1386;50.862;6.494;2024-02-15T15:34:15;15.40;99.90
